createdAt,value
2023-02-11T00:00:41.620Z,103448.81
2023-02-11T00:03:08.610Z,103450.69
2023-02-11T00:05:35.401Z,103443.59
2023-02-11T00:08:02.020Z,103442.94
2023-02-11T00:10:28.592Z,103448.41
2023-02-11T00:12:55.788Z,103451.13
2023-02-11T00:15:22.402Z,103446.75
2023-02-11T00:17:48.898Z,103444.25
2023-02-11T00:20:15.450Z,103437.09
2023-02-11T00:22:41.932Z,103430.63
2023-02-11T00:25:08.566Z,103425.38
2023-02-11T00:27:37.314Z,103430.22
2023-02-11T00:30:05.375Z,103430.22
2023-02-11T00:32:32.167Z,103439.44
2023-02-11T00:34:58.703Z,103440.50
2023-02-11T00:37:25.299Z,103431.50
2023-02-11T00:39:51.872Z,103427.94
2023-02-11T00:42:18.457Z,103430.84
2023-02-11T00:44:45.023Z,103426.47
2023-02-11T00:47:11.652Z,103414.75
2023-02-11T00:49:40.293Z,103412.88
2023-02-11T00:52:06.915Z,103407.66
2023-02-11T00:54:33.529Z,103408.91
2023-02-11T00:57:00.113Z,103419.59
2023-02-11T00:59:27.099Z,103418.13
2023-02-11T01:01:53.785Z,103421.91
2023-02-11T01:04:20.374Z,103410.16
2023-02-11T01:06:46.999Z,103406.63
2023-02-11T01:09:13.459Z,103403.06
2023-02-11T01:11:39.972Z,103416.91
2023-02-11T01:14:06.537Z,103416.06
2023-02-11T01:16:33.064Z,103417.09
2023-02-11T01:18:59.613Z,103408.94
2023-02-11T01:21:26.308Z,103404.56
2023-02-11T01:23:53.221Z,103417.31
2023-02-11T01:26:19.994Z,103415.88
2023-02-11T01:28:46.831Z,103415.03
2023-02-11T01:31:13.694Z,103410.66
2023-02-11T01:33:40.298Z,103407.94
2023-02-11T01:36:08.250Z,103410.66
2023-02-11T01:38:35.432Z,103404.56
2023-02-11T01:41:07.927Z,103393.69
2023-02-11T01:43:41.097Z,103402.69
2023-02-11T01:46:26.382Z,103403.75
2023-02-11T01:49:17.938Z,103416.53
2023-02-11T01:52:02.110Z,103414.03
2023-02-11T01:54:51.557Z,103411.50
2023-02-11T01:57:25.259Z,103398.97
2023-02-11T02:00:13.372Z,103389.97
2023-02-11T02:02:50.543Z,103390.16
2023-02-11T02:05:40.186Z,103384.72
2023-02-11T02:08:21.829Z,103388.50
2023-02-11T02:10:53.971Z,103387.66
2023-02-11T02:13:21.204Z,103394.16
2023-02-11T02:15:53.986Z,103400.63
2023-02-11T02:18:20.466Z,103401.69
2023-02-11T02:24:49.075Z,103376.38
2023-02-11T02:27:37.408Z,103379.34
2023-02-11T02:30:09.976Z,103391.25
2023-02-11T02:32:43.683Z,103388.53
2023-02-11T02:35:19.193Z,103384.13
2023-02-11T02:38:08.270Z,103387.09
2023-02-11T02:40:56.841Z,103393.34
2023-02-11T02:43:26.057Z,103397.97
2023-02-11T02:45:53.112Z,103402.78
2023-02-11T02:48:30.725Z,103401.13
2023-02-11T02:51:26.876Z,103397.75
2023-02-11T02:54:02.457Z,103406.75
2023-02-11T02:56:53.137Z,103398.81
2023-02-11T02:59:38.497Z,103398.81
2023-02-11T03:02:16.404Z,103404.50
2023-02-11T03:05:01.661Z,103403.66
2023-02-11T03:07:57.371Z,103394.63
2023-02-11T03:10:30.055Z,103389.19
2023-02-11T03:12:57.434Z,103380.44
2023-02-11T03:15:28.202Z,103378.78
2023-02-11T03:17:58.775Z,103388.78
2023-02-11T03:20:25.518Z,103396.94
2023-02-11T03:22:58.994Z,103394.44
2023-02-11T03:25:30.863Z,103402.63
2023-02-11T03:28:27.405Z,103390.91
2023-02-11T03:31:13.596Z,103382.09
2023-02-11T03:33:51.060Z,103375.00
2023-02-11T03:36:43.851Z,103383.81
2023-02-11T03:39:13.268Z,103376.06
2023-02-11T03:41:42.416Z,103377.97
2023-02-11T03:44:10.472Z,103373.53
2023-02-11T03:46:40.387Z,103378.97
2023-02-11T03:49:12.016Z,103380.03
2023-02-11T03:51:39.180Z,103378.38
2023-02-11T03:54:11.595Z,103366.66
2023-02-11T03:56:47.112Z,103360.41
2023-02-11T03:59:13.583Z,103362.25
2023-02-11T04:01:40.142Z,103354.31
2023-02-11T04:04:06.706Z,103361.44
2023-02-11T04:06:33.224Z,103364.38
2023-02-11T04:08:59.903Z,103368.97
2023-02-11T04:11:26.426Z,103379.03
2023-02-11T04:13:52.909Z,103373.59
2023-02-11T04:16:19.522Z,103366.44
2023-02-11T04:18:46.172Z,103374.81
2023-02-11T04:21:12.868Z,103365.81
2023-02-11T04:23:39.695Z,103363.28
2023-02-11T04:26:06.242Z,103365.19
2023-02-11T04:28:32.883Z,103373.34
2023-02-11T04:30:59.509Z,103371.69
2023-02-11T04:33:26.188Z,103377.13
2023-02-11T04:35:52.914Z,103378.19
2023-02-11T04:38:19.532Z,103372.75
2023-02-11T04:40:46.008Z,103369.19
2023-02-11T04:43:12.491Z,103367.31
2023-02-11T04:45:39.035Z,103368.31
2023-02-11T04:48:05.789Z,103366.66
2023-02-11T04:50:32.534Z,103368.56
2023-02-11T04:52:59.019Z,103374.00
2023-02-11T04:55:25.578Z,103373.16
2023-02-11T04:57:52.261Z,103371.50
2023-02-11T05:00:19.185Z,103374.22
2023-02-11T05:02:45.707Z,103361.03
2023-02-11T05:05:12.187Z,103361.63
2023-02-11T05:07:38.753Z,103353.06
2023-02-11T05:10:05.459Z,103351.59
2023-02-11T05:12:32.052Z,103352.84
2023-02-11T05:14:58.627Z,103346.97
2023-02-11T05:17:25.138Z,103350.09
2023-02-11T05:19:51.671Z,103358.88
2023-02-11T05:22:18.217Z,103356.56
2023-02-11T05:24:44.727Z,103364.53
2023-02-11T05:27:11.360Z,103359.69
2023-02-11T05:29:38.074Z,103365.75
2023-02-11T05:32:04.865Z,103358.19
2023-02-11T05:34:31.354Z,103364.50
2023-02-11T05:36:57.853Z,103374.31
2023-02-11T05:39:24.482Z,103374.31
2023-02-11T05:41:51.049Z,103379.75
2023-02-11T05:44:17.559Z,103382.25
2023-02-11T05:46:44.163Z,103385.81
2023-02-11T05:49:10.701Z,103381.22
2023-02-11T05:51:37.264Z,103394.81
2023-02-11T05:54:03.815Z,103387.69
2023-02-11T05:56:30.398Z,103386.25
2023-02-11T05:58:59.586Z,103378.94
2023-02-11T06:01:27.711Z,103376.22
2023-02-11T06:03:54.941Z,103371.38
2023-02-11T06:06:21.726Z,103369.06
2023-02-11T06:08:48.312Z,103375.72
2023-02-11T06:11:16.246Z,103377.19
2023-02-11T06:13:43.238Z,103383.22
2023-02-11T06:16:10.159Z,103380.09
2023-02-11T06:18:36.768Z,103373.38
2023-02-11T06:21:07.902Z,103375.03
2023-02-11T06:23:34.476Z,103364.16
2023-02-11T06:26:06.158Z,103384.91
2023-02-11T06:28:33.544Z,103377.56
2023-02-11T06:31:06.602Z,103374.03
2023-02-11T06:33:34.213Z,103376.75
2023-02-11T06:36:01.400Z,103380.50
2023-02-11T06:38:28.000Z,103387.00
2023-02-11T06:40:54.851Z,103389.94
2023-02-11T06:43:21.392Z,103389.72
2023-02-11T06:45:54.263Z,103398.28
2023-02-11T06:48:21.269Z,103391.56
2023-02-11T06:50:47.960Z,103396.56
2023-02-11T06:53:14.500Z,103401.56
2023-02-11T06:55:41.056Z,103399.25
2023-02-11T06:58:07.536Z,103402.81
2023-02-11T07:00:34.008Z,103401.78
2023-02-11T07:03:00.653Z,103402.38
2023-02-11T07:05:27.186Z,103402.38
2023-02-11T07:07:53.719Z,103407.00
2023-02-11T07:10:20.278Z,103395.03
2023-02-11T07:12:46.762Z,103399.66
2023-02-11T07:15:13.268Z,103395.88
2023-02-11T07:17:39.813Z,103402.78
2023-02-11T07:20:06.766Z,103404.25
2023-02-11T07:22:34.238Z,103407.78
2023-02-11T07:25:00.743Z,103413.00
2023-02-11T07:27:27.245Z,103417.63
2023-02-11T07:29:53.807Z,103407.78
2023-02-11T07:32:20.642Z,103407.56
2023-02-11T07:34:48.422Z,103414.69
2023-02-11T07:37:15.234Z,103412.38
2023-02-11T07:39:41.717Z,103414.03
2023-02-11T07:42:08.385Z,103420.31
2023-02-11T07:44:36.853Z,103428.47
2023-02-11T07:47:03.525Z,103432.06
2023-02-11T07:49:30.022Z,103434.78
2023-02-11T07:51:56.679Z,103444.63
2023-02-11T07:54:23.372Z,103441.69
2023-02-11T07:56:49.893Z,103442.53
2023-02-11T07:59:16.467Z,103443.13
2023-02-11T08:01:43.069Z,103441.25
2023-02-11T08:04:09.697Z,103436.66
2023-02-11T08:06:42.160Z,103446.47
2023-02-11T08:09:11.238Z,103441.25
2023-02-11T08:11:37.787Z,103443.13
2023-02-11T08:14:04.325Z,103450.03
2023-02-11T08:16:34.428Z,103455.06
2023-02-11T08:19:03.954Z,103446.66
2023-02-11T08:21:31.049Z,103450.84
2023-02-11T08:23:58.062Z,103450.59
2023-02-11T08:26:28.721Z,103452.28
2023-02-11T08:28:56.829Z,103453.94
2023-02-11T08:31:26.459Z,103452.06
2023-02-11T08:33:57.859Z,103462.75
2023-02-11T08:36:26.826Z,103474.25
2023-02-11T08:39:05.663Z,103467.75
2023-02-11T08:41:39.181Z,103470.47
2023-02-11T08:44:05.704Z,103478.63
2023-02-11T08:46:32.237Z,103467.97
2023-02-11T08:48:59.068Z,103480.75
2023-02-11T08:51:27.755Z,103486.22
2023-02-11T08:53:55.496Z,103478.63
2023-02-11T08:56:23.496Z,103477.59
2023-02-11T08:58:50.562Z,103484.72
2023-02-11T09:01:23.264Z,103491.00
2023-02-11T09:03:49.901Z,103498.53
2023-02-11T09:06:18.506Z,103490.34
2023-02-11T09:08:49.111Z,103486.22
2023-02-11T09:11:17.103Z,103488.09
2023-02-11T09:13:44.195Z,103493.31
2023-02-11T09:16:19.711Z,103503.53
2023-02-11T09:18:47.358Z,103498.72
2023-02-11T09:21:15.097Z,103502.88
2023-02-11T09:23:44.733Z,103493.88
2023-02-11T09:26:18.980Z,103495.78
2023-02-11T09:28:46.276Z,103496.59
2023-02-11T09:31:15.780Z,103501.03
2023-02-11T09:33:47.761Z,103492.00
2023-02-11T09:36:17.269Z,103504.56
2023-02-11T09:38:44.603Z,103501.03
2023-02-11T09:41:24.261Z,103505.63
2023-02-11T09:43:58.371Z,103509.41
2023-02-11T09:46:27.613Z,103508.56
2023-02-11T09:48:56.367Z,103510.47
2023-02-11T09:51:38.150Z,103510.47
2023-02-11T09:54:27.946Z,103501.22
2023-02-11T09:56:54.474Z,103509.78
2023-02-11T09:59:21.610Z,103515.88
2023-02-11T10:01:53.522Z,103506.88
2023-02-11T10:04:32.133Z,103509.59
2023-02-11T10:07:21.411Z,103509.59
2023-02-11T10:10:09.530Z,103507.69
2023-02-11T10:12:58.190Z,103512.31
2023-02-11T10:15:51.534Z,103526.78
2023-02-11T10:18:50.505Z,103532.22
2023-02-11T10:21:24.735Z,103530.53
2023-02-11T10:23:57.117Z,103527.81
2023-02-11T10:26:23.826Z,103533.06
2023-02-11T10:28:54.341Z,103542.88
2023-02-11T10:31:22.980Z,103541.22
2023-02-11T10:34:11.437Z,103545.00
2023-02-11T10:36:40.655Z,103556.50
2023-02-11T10:39:19.131Z,103561.75
2023-02-11T10:42:00.810Z,103551.69
2023-02-11T10:44:53.444Z,103562.59
2023-02-11T10:47:27.540Z,103559.88
2023-02-11T10:49:54.478Z,103557.16
2023-02-11T10:52:24.377Z,103568.03
2023-02-11T10:55:14.572Z,103572.66
2023-02-11T10:57:53.697Z,103569.69
2023-02-11T11:00:32.376Z,103571.59
2023-02-11T11:03:01.032Z,103572.44
2023-02-11T11:05:32.217Z,103583.31
2023-02-11T11:08:04.641Z,103582.25
2023-02-11T11:10:44.443Z,103586.66
2023-02-11T11:13:38.537Z,103579.13
2023-02-11T11:16:13.955Z,103588.75
2023-02-11T11:18:43.764Z,103591.47
2023-02-11T11:21:23.862Z,103586.63
2023-02-11T11:24:03.649Z,103586.03
2023-02-11T11:26:41.872Z,103583.06
2023-02-11T11:29:14.690Z,103580.34
2023-02-11T11:32:04.677Z,103582.88
2023-02-11T11:34:40.550Z,103580.16
2023-02-11T11:37:35.476Z,103582.00
2023-02-11T11:40:23.670Z,103588.31
2023-02-11T11:43:21.314Z,103580.16
2023-02-11T11:45:59.209Z,103584.53
2023-02-11T11:48:35.092Z,103580.75
2023-02-11T11:51:05.220Z,103579.91
2023-02-11T11:53:44.372Z,103591.41
2023-02-11T11:56:19.884Z,103584.31
2023-02-11T11:58:47.147Z,103580.50
2023-02-11T12:01:41.310Z,103583.25
2023-02-11T12:04:17.018Z,103579.69
2023-02-11T12:07:02.417Z,103576.13
2023-02-11T12:09:44.018Z,103589.56
2023-02-11T12:12:13.360Z,103578.41
2023-02-11T12:14:52.064Z,103592.03
2023-02-11T12:17:28.271Z,103601.88
2023-02-11T12:20:21.198Z,103601.06
2023-02-11T12:23:04.011Z,103601.88
2023-02-11T12:25:38.701Z,103593.50
2023-02-11T12:28:26.817Z,103600.84
2023-02-11T12:31:13.427Z,103598.13
2023-02-11T12:33:51.166Z,103594.34
2023-02-11T12:36:26.656Z,103595.81
2023-02-11T12:39:16.008Z,103591.38
2023-02-11T12:42:20.077Z,103591.38
2023-02-11T12:45:03.219Z,103599.38
2023-02-11T12:47:38.874Z,103593.06
2023-02-11T12:50:40.937Z,103583.22
2023-02-11T12:53:32.200Z,103597.47
2023-02-11T12:56:05.890Z,103583.84
2023-02-11T12:58:45.121Z,103591.19
2023-02-11T13:01:26.499Z,103589.28
2023-02-11T13:04:06.599Z,103586.56
2023-02-11T13:06:41.832Z,103593.91
2023-02-11T13:09:22.656Z,103584.91
2023-02-11T13:11:57.187Z,103589.28
2023-02-11T13:14:26.362Z,103586.56
2023-02-11T13:16:55.130Z,103591.78
2023-02-11T13:19:35.933Z,103585.50
2023-02-11T13:22:07.448Z,103578.16
2023-02-11T13:24:44.491Z,103580.69
2023-02-11T13:27:32.484Z,103570.81
2023-02-11T13:30:27.149Z,103577.97
2023-02-11T13:32:56.650Z,103573.53
2023-02-11T13:35:34.978Z,103579.00
2023-02-11T13:38:04.987Z,103584.25
2023-02-11T13:40:37.854Z,103577.97
2023-02-11T13:43:07.097Z,103568.72
2023-02-11T13:45:42.959Z,103573.34
2023-02-11T13:48:19.858Z,103566.19
2023-02-11T13:50:51.650Z,103579.00
2023-02-11T13:53:19.323Z,103571.66
2023-02-11T13:55:49.218Z,103568.72
2023-02-11T13:58:20.103Z,103575.84
2023-02-11T14:00:50.657Z,103561.13
2023-02-11T14:03:39.218Z,103563.03
2023-02-11T14:06:27.402Z,103564.72
2023-02-11T14:09:09.287Z,103576.66
2023-02-11T14:11:44.657Z,103567.66
2023-02-11T14:14:28.703Z,103571.00
2023-02-11T14:17:07.382Z,103563.66
2023-02-11T14:19:34.965Z,103567.44
2023-02-11T14:22:30.275Z,103573.72
2023-02-11T14:25:03.171Z,103565.56
2023-02-11T14:27:31.762Z,103572.91
2023-02-11T14:30:22.725Z,103563.88
2023-02-11T14:33:43.701Z,103566.38
2023-02-11T14:36:39.685Z,103579.78
2023-02-11T14:39:31.219Z,103580.84
2023-02-11T14:42:00.036Z,103578.13
2023-02-11T14:44:28.740Z,103571.59
2023-02-11T14:46:56.200Z,103572.44
2023-02-11T14:49:37.815Z,103568.06
2023-02-11T14:52:17.105Z,103578.13
2023-02-11T14:54:45.150Z,103574.34
2023-02-11T14:57:15.928Z,103584.81
2023-02-11T15:00:04.258Z,103592.97
2023-02-11T15:02:38.624Z,103590.25
2023-02-11T15:05:22.466Z,103588.59
2023-02-11T15:07:52.811Z,103594.88
2023-02-11T15:10:32.041Z,103593.22
2023-02-11T15:13:01.385Z,103588.59
2023-02-11T15:15:28.973Z,103586.47
2023-02-11T15:17:57.878Z,103584.56
2023-02-11T15:20:29.651Z,103585.63
2023-02-11T15:23:00.374Z,103590.88
2023-02-11T15:25:28.167Z,103602.81
2023-02-11T15:27:57.807Z,103602.00
2023-02-11T15:30:25.879Z,103599.25
2023-02-11T15:32:59.697Z,103595.47
2023-02-11T15:35:41.119Z,103598.03
2023-02-11T15:38:11.105Z,103595.31
2023-02-11T15:40:37.708Z,103593.41
2023-02-11T15:43:09.488Z,103598.03
2023-02-11T15:45:40.266Z,103606.22
2023-02-11T15:48:12.498Z,103602.66
2023-02-11T15:50:41.690Z,103594.47
2023-02-11T15:53:23.609Z,103599.69
2023-02-11T15:55:52.831Z,103606.22
2023-02-11T15:58:20.100Z,103598.88
2023-02-11T16:00:49.993Z,103608.94
2023-02-11T16:03:25.554Z,103595.31
2023-02-11T16:05:52.158Z,103592.59
2023-02-11T16:08:25.045Z,103602.41
2023-02-11T16:11:08.520Z,103607.03
2023-02-11T16:13:46.253Z,103607.88
2023-02-11T16:16:19.706Z,103609.78
2023-02-11T16:19:03.423Z,103613.56
2023-02-11T16:21:39.287Z,103623.59
2023-02-11T16:24:22.704Z,103612.91
2023-02-11T16:26:52.337Z,103609.34
2023-02-11T16:29:27.312Z,103618.34
2023-02-11T16:32:05.665Z,103622.97
2023-02-11T16:34:32.172Z,103619.84
2023-02-11T16:36:58.703Z,103631.56
2023-02-11T16:39:25.273Z,103634.06
2023-02-11T16:41:52.353Z,103635.97
2023-02-11T16:44:19.106Z,103634.94
2023-02-11T16:46:46.107Z,103634.94
2023-02-11T16:49:23.052Z,103634.06
2023-02-11T16:51:53.106Z,103631.34
2023-02-11T16:54:20.189Z,103633.88
2023-02-11T16:56:46.911Z,103642.88
2023-02-11T16:59:13.516Z,103640.16
2023-02-11T17:01:42.328Z,103643.13
2023-02-11T17:04:30.221Z,103658.41
2023-02-11T17:06:58.506Z,103653.16
2023-02-11T17:09:30.259Z,103656.94
2023-02-11T17:11:57.646Z,103668.91
2023-02-11T17:14:24.406Z,103666.78
2023-02-11T17:16:51.074Z,103660.31
2023-02-11T17:19:22.528Z,103670.16
2023-02-11T17:21:52.051Z,103670.16
2023-02-11T17:24:20.879Z,103672.03
2023-02-11T17:26:48.575Z,103671.22
2023-02-11T17:29:18.689Z,103665.75
2023-02-11T17:31:45.466Z,103672.25
2023-02-11T17:34:12.122Z,103676.66
2023-02-11T17:36:41.276Z,103685.69
2023-02-11T17:39:08.491Z,103676.44
2023-02-11T17:41:36.486Z,103680.22
2023-02-11T17:44:03.367Z,103682.72
2023-02-11T17:46:29.926Z,103684.63
2023-02-11T17:48:58.844Z,103680.22
2023-02-11T17:51:34.392Z,103677.69
2023-02-11T17:54:04.154Z,103686.75
2023-02-11T17:56:33.043Z,103682.94
2023-02-11T17:58:59.695Z,103685.69
2023-02-11T18:01:31.297Z,103697.41
2023-02-11T18:03:57.897Z,103692.19
2023-02-11T18:06:25.793Z,103695.75
2023-02-11T18:08:52.418Z,103704.97
2023-02-11T18:11:19.018Z,103698.66
2023-02-11T18:13:45.552Z,103712.94
2023-02-11T18:16:15.907Z,103702.88
2023-02-11T18:18:43.198Z,103706.44
2023-02-11T18:21:16.724Z,103711.03
2023-02-11T18:23:44.136Z,103700.97
2023-02-11T18:26:12.873Z,103711.88
2023-02-11T18:28:39.924Z,103713.78
2023-02-11T18:31:08.227Z,103703.94
2023-02-11T18:33:36.356Z,103713.78
2023-02-11T18:36:11.175Z,103716.25
2023-02-11T18:38:38.112Z,103728.22
2023-02-11T18:41:04.921Z,103714.59
2023-02-11T18:43:33.557Z,103711.88
2023-02-11T18:46:01.835Z,103718.38
2023-02-11T18:48:28.500Z,103724.69
2023-02-11T18:50:55.797Z,103714.00
2023-02-11T18:53:24.589Z,103715.44
2023-02-11T18:55:52.709Z,103726.34
2023-02-11T18:58:21.322Z,103723.63
2023-02-11T19:00:48.956Z,103717.34
2023-02-11T19:03:15.882Z,103726.34
2023-02-11T19:05:47.792Z,103720.06
2023-02-11T19:08:17.075Z,103726.56
2023-02-11T19:10:46.033Z,103727.63
2023-02-11T19:13:13.733Z,103732.03
2023-02-11T19:15:45.239Z,103740.41
2023-02-11T19:18:13.130Z,103734.94
2023-02-11T19:20:41.198Z,103724.03
2023-02-11T19:23:08.058Z,103727.84
2023-02-11T19:25:35.044Z,103721.53
2023-02-11T19:28:01.892Z,103720.72
2023-02-11T19:30:28.430Z,103722.59
2023-02-11T19:32:57.443Z,103729.91
2023-02-11T19:35:25.207Z,103728.91
2023-02-11T19:37:51.874Z,103727.00
2023-02-11T19:40:19.214Z,103738.53
2023-02-11T19:42:45.822Z,103739.56
2023-02-11T19:45:12.539Z,103739.56
2023-02-11T19:47:39.108Z,103743.34
2023-02-11T19:50:06.354Z,103741.47
2023-02-11T19:52:33.038Z,103752.38
2023-02-11T19:55:00.579Z,103747.75
2023-02-11T19:57:27.159Z,103745.03
2023-02-11T19:59:56.874Z,103750.47
2023-02-11T20:02:23.436Z,103746.91
2023-02-11T20:04:50.242Z,103753.44
2023-02-11T20:07:16.810Z,103749.88
2023-02-11T20:09:43.586Z,103746.28
2023-02-11T20:12:11.945Z,103747.31
2023-02-11T20:14:38.428Z,103752.38
2023-02-11T20:17:04.879Z,103751.53
2023-02-11T20:19:31.402Z,103761.38
2023-02-11T20:21:57.992Z,103764.34
2023-02-11T20:24:25.393Z,103768.94
2023-02-11T20:26:55.909Z,103772.50
2023-02-11T20:29:24.109Z,103780.84
2023-02-11T20:31:51.013Z,103780.84
2023-02-11T20:34:18.746Z,103781.91
2023-02-11T20:36:51.826Z,103783.16
2023-02-11T20:39:19.642Z,103793.06
2023-02-11T20:41:46.412Z,103790.53
2023-02-11T20:44:13.464Z,103790.53
2023-02-11T20:46:43.506Z,103793.47
2023-02-11T20:49:12.378Z,103794.53
2023-02-11T20:51:39.833Z,103797.25
2023-02-11T20:54:07.218Z,103803.75
2023-02-11T20:56:36.566Z,103799.34
2023-02-11T20:59:04.518Z,103802.06
2023-02-11T21:01:38.153Z,103811.09
2023-02-11T21:04:07.966Z,103807.94
2023-02-11T21:06:38.025Z,103803.31
2023-02-11T21:09:06.417Z,103813.41
2023-02-11T21:11:33.000Z,103809.00
2023-02-11T21:13:59.884Z,103813.84
2023-02-11T21:16:26.950Z,103812.97
2023-02-11T21:18:55.402Z,103805.66
2023-02-11T21:21:21.963Z,103815.72
2023-02-11T21:23:48.495Z,103810.25
2023-02-11T21:26:16.927Z,103816.78
2023-02-11T21:28:45.127Z,103826.00
2023-02-11T21:31:23.302Z,103821.38
2023-02-11T21:33:50.993Z,103827.91
2023-02-11T21:36:17.986Z,103837.97
2023-02-11T21:38:44.895Z,103831.66
2023-02-11T21:41:11.895Z,103826.44
2023-02-11T21:43:38.867Z,103837.31
2023-02-11T21:46:10.952Z,103839.41
2023-02-11T21:48:37.625Z,103830.41
2023-02-11T21:51:15.569Z,103838.59
2023-02-11T21:53:42.147Z,103841.53
2023-02-11T21:56:12.083Z,103834.41
2023-02-11T21:58:39.023Z,103836.31
2023-02-11T22:01:21.619Z,103840.28
2023-02-11T22:03:48.634Z,103847.63
2023-02-11T22:06:26.173Z,103852.00
2023-02-11T22:08:53.954Z,103854.09
2023-02-11T22:11:21.086Z,103845.91
2023-02-11T22:13:47.971Z,103846.16
2023-02-11T22:16:16.661Z,103841.75
2023-02-11T22:18:46.972Z,103835.47
2023-02-11T22:21:19.600Z,103834.00
2023-02-11T22:23:46.852Z,103843.84
2023-02-11T22:26:15.929Z,103848.22
2023-02-11T22:28:42.986Z,103845.13
2023-02-11T22:31:14.673Z,103844.47
2023-02-11T22:33:41.844Z,103851.59
2023-02-11T22:36:14.667Z,103848.03
2023-02-11T22:38:41.182Z,103844.47
2023-02-11T22:41:10.259Z,103843.84
2023-02-11T22:43:37.617Z,103848.44
2023-02-11T22:46:07.065Z,103848.69
2023-02-11T22:48:35.020Z,103847.84
2023-02-11T22:51:12.788Z,103837.97
2023-02-11T22:53:39.688Z,103835.47
2023-02-11T22:56:09.193Z,103846.38
2023-02-11T22:58:36.389Z,103844.69
2023-02-11T23:01:03.651Z,103845.75
2023-02-11T23:03:31.327Z,103853.94
2023-02-11T23:05:59.388Z,103852.22
2023-02-11T23:08:27.513Z,103852.44
2023-02-11T23:10:54.068Z,103846.34
2023-02-11T23:13:20.683Z,103845.34
2023-02-11T23:15:47.727Z,103850.97
2023-02-11T23:18:14.707Z,103856.41
2023-02-11T23:20:43.771Z,103859.38
2023-02-11T23:23:10.777Z,103858.53
2023-02-11T23:25:43.459Z,103862.28
2023-02-11T23:28:11.560Z,103856.00
2023-02-11T23:30:39.371Z,103867.13
2023-02-11T23:33:06.065Z,103860.84
2023-02-11T23:35:32.575Z,103861.88
2023-02-11T23:37:59.181Z,103860.19
2023-02-11T23:40:25.688Z,103853.91
2023-02-11T23:42:52.299Z,103857.69
2023-02-11T23:45:19.173Z,103864.16
2023-02-11T23:47:45.789Z,103866.88
2023-02-11T23:50:12.403Z,103861.66
2023-02-11T23:52:39.080Z,103862.72
2023-02-11T23:55:06.356Z,103856.63
2023-02-11T23:57:33.153Z,103856.63
